createdAt,value
2018-07-15T00:01:47.993Z,7.23
2018-07-15T00:04:15.345Z,8.07
2018-07-15T00:06:42.676Z,8.20
2018-07-15T00:09:09.982Z,8.70
2018-07-15T00:11:37.221Z,9.27
2018-07-15T00:14:04.712Z,8.40
2018-07-15T00:16:31.909Z,7.57
2018-07-15T00:18:59.352Z,8.10
2018-07-15T00:21:26.599Z,8.00
2018-07-15T00:23:53.854Z,7.20
2018-07-15T00:26:21.123Z,7.80
2018-07-15T00:28:48.552Z,8.13
2018-07-15T00:31:15.945Z,7.70
2018-07-15T00:33:43.288Z,7.70
2018-07-15T00:36:10.860Z,8.37
2018-07-15T00:38:38.161Z,7.37
2018-07-15T00:41:05.522Z,8.33
2018-07-15T00:43:32.844Z,7.30
2018-07-15T00:46:00.166Z,8.10
2018-07-15T00:48:27.522Z,8.70
2018-07-15T00:50:54.826Z,7.70
2018-07-15T00:53:22.115Z,8.00
2018-07-15T00:55:49.431Z,8.67
2018-07-15T00:58:17.231Z,8.10
2018-07-15T01:00:50.144Z,8.10
2018-07-15T01:03:17.425Z,8.40
2018-07-15T01:05:44.778Z,7.70
2018-07-15T01:08:12.073Z,8.30
2018-07-15T01:10:39.376Z,7.50
2018-07-15T01:13:06.739Z,9.00
2018-07-15T01:15:33.993Z,8.77
2018-07-15T01:18:01.280Z,8.70
2018-07-15T01:20:28.659Z,8.87
2018-07-15T01:22:55.912Z,8.77
2018-07-15T01:25:23.174Z,10.83
2018-07-15T01:27:50.440Z,8.10
2018-07-15T01:30:17.712Z,9.47
2018-07-15T01:32:45.130Z,8.73
2018-07-15T01:35:12.377Z,9.60
2018-07-15T01:37:39.676Z,8.23
2018-07-15T01:40:06.942Z,8.73
2018-07-15T01:42:34.212Z,8.30
2018-07-15T01:45:01.469Z,8.50
2018-07-15T01:47:28.783Z,8.10
2018-07-15T01:49:56.060Z,9.47
2018-07-15T01:52:23.331Z,9.20
2018-07-15T01:54:50.620Z,7.93
2018-07-15T01:57:17.908Z,8.73
2018-07-15T01:59:45.175Z,9.17
2018-07-15T02:02:12.512Z,8.67
2018-07-15T02:04:39.775Z,8.70
2018-07-15T02:07:07.158Z,9.07
2018-07-15T02:09:34.504Z,8.37
2018-07-15T02:12:01.801Z,8.83
2018-07-15T02:14:29.081Z,7.80
2018-07-15T02:16:56.348Z,8.03
2018-07-15T02:19:23.620Z,8.07
2018-07-15T02:21:50.928Z,9.67
2018-07-15T02:24:18.195Z,8.97
2018-07-15T02:26:45.518Z,8.77
2018-07-15T02:29:12.817Z,8.93
2018-07-15T02:31:40.093Z,7.17
2018-07-15T02:34:08.313Z,8.87
2018-07-15T02:36:35.748Z,7.90
2018-07-15T02:39:04.215Z,8.77
2018-07-15T02:41:31.486Z,8.33
2018-07-15T02:43:58.786Z,8.40
2018-07-15T02:46:26.027Z,8.43
2018-07-15T02:48:53.408Z,9.20
2018-07-15T02:51:20.653Z,9.33
2018-07-15T02:53:47.924Z,8.80
2018-07-15T02:56:15.197Z,9.83
2018-07-15T02:58:42.478Z,9.13
2018-07-15T03:01:09.775Z,8.63
2018-07-15T03:03:37.073Z,8.90
2018-07-15T03:06:04.403Z,9.10
2018-07-15T03:08:31.658Z,8.47
2018-07-15T03:10:58.916Z,8.90
2018-07-15T03:13:26.169Z,8.20
2018-07-15T03:15:53.431Z,8.73
2018-07-15T03:18:20.678Z,9.40
2018-07-15T03:20:47.962Z,9.30
2018-07-15T03:23:15.243Z,9.60
2018-07-15T03:25:42.629Z,10.50
2018-07-15T03:28:09.896Z,8.63
2018-07-15T03:30:37.128Z,9.50
2018-07-15T03:33:04.441Z,9.20
2018-07-15T03:35:31.656Z,9.03
2018-07-15T03:37:58.923Z,8.70
2018-07-15T03:40:26.204Z,9.10
2018-07-15T03:42:53.534Z,8.57
2018-07-15T03:45:20.888Z,9.80
2018-07-15T03:47:48.157Z,8.90
2018-07-15T03:50:15.427Z,8.10
2018-07-15T03:52:42.713Z,8.50
2018-07-15T03:55:09.968Z,8.27
2018-07-15T03:57:37.213Z,9.13
2018-07-15T04:00:04.555Z,8.50
2018-07-15T04:02:31.854Z,8.90
2018-07-15T04:04:59.123Z,8.50
2018-07-15T04:07:26.410Z,8.67
2018-07-15T04:09:53.651Z,8.47
2018-07-15T04:12:20.909Z,8.87
2018-07-15T04:14:48.160Z,9.07
2018-07-15T04:17:15.413Z,8.70
2018-07-15T04:19:42.679Z,8.30
2018-07-15T04:22:09.915Z,8.47
2018-07-15T04:24:37.176Z,9.03
2018-07-15T04:27:04.446Z,9.00
2018-07-15T04:29:31.697Z,8.47
2018-07-15T04:31:59.058Z,8.63
2018-07-15T04:34:26.284Z,8.80
2018-07-15T04:36:53.572Z,8.30
2018-07-15T04:39:20.860Z,9.10
2018-07-15T04:41:48.151Z,9.00
2018-07-15T04:44:15.451Z,9.97
2018-07-15T04:46:42.749Z,8.70
2018-07-15T04:49:10.075Z,8.17
2018-07-15T04:51:37.429Z,7.73
2018-07-15T04:54:04.874Z,7.87
2018-07-15T04:56:32.152Z,6.30
2018-07-15T04:58:59.441Z,7.40
2018-07-15T05:01:26.755Z,7.33
2018-07-15T05:03:54.039Z,7.67
2018-07-15T05:06:21.321Z,6.53
2018-07-15T05:08:48.596Z,7.30
2018-07-15T05:11:15.931Z,7.80
2018-07-15T05:13:43.202Z,7.80
2018-07-15T05:16:10.468Z,8.67
2018-07-15T05:18:37.812Z,8.30
2018-07-15T05:21:05.288Z,8.73
2018-07-15T05:23:32.591Z,9.50
2018-07-15T05:25:59.929Z,9.97
2018-07-15T05:28:27.195Z,8.70
2018-07-15T05:30:54.457Z,9.30
2018-07-15T05:33:21.898Z,10.13
2018-07-15T05:35:49.360Z,10.47
2018-07-15T05:38:16.711Z,10.10
2018-07-15T05:40:44.113Z,9.80
2018-07-15T05:43:11.366Z,9.87
2018-07-15T05:45:38.696Z,10.40
2018-07-15T05:48:06.081Z,9.67
2018-07-15T05:50:33.357Z,9.77
2018-07-15T05:53:00.637Z,10.50
2018-07-15T05:55:27.984Z,10.97
2018-07-15T05:57:55.292Z,11.17
2018-07-15T06:00:22.616Z,9.23
2018-07-15T06:02:49.915Z,9.67
2018-07-15T06:05:17.160Z,10.93
2018-07-15T06:07:44.494Z,9.20
2018-07-15T06:10:11.745Z,9.50
2018-07-15T06:12:38.990Z,8.97
2018-07-15T06:15:06.393Z,8.93
2018-07-15T06:17:33.783Z,8.43
2018-07-15T06:20:01.065Z,8.93
2018-07-15T06:22:28.365Z,8.90
2018-07-15T06:24:55.635Z,9.27
2018-07-15T06:27:22.880Z,9.10
2018-07-15T06:29:50.137Z,8.90
2018-07-15T06:32:17.416Z,9.00
2018-07-15T06:34:44.644Z,8.73
2018-07-15T06:37:11.972Z,9.50
2018-07-15T06:39:39.177Z,8.60
2018-07-15T06:42:06.509Z,9.57
2018-07-15T06:44:33.930Z,7.93
2018-07-15T06:47:01.205Z,9.60
2018-07-15T06:49:28.528Z,9.47
2018-07-15T06:51:55.808Z,9.30
2018-07-15T06:54:23.152Z,9.97
2018-07-15T06:56:50.484Z,8.43
2018-07-15T06:59:18.165Z,7.87
2018-07-15T07:01:45.487Z,8.20
2018-07-15T07:04:12.798Z,8.47
2018-07-15T07:06:40.055Z,8.87
2018-07-15T07:09:07.789Z,8.67
2018-07-15T07:11:35.976Z,9.23
2018-07-15T07:14:03.672Z,8.47
2018-07-15T07:16:31.001Z,8.43
2018-07-15T07:18:58.367Z,8.63
2018-07-15T07:21:25.734Z,10.20
2018-07-15T07:23:52.979Z,8.80
2018-07-15T07:26:20.295Z,9.20
2018-07-15T07:28:47.767Z,8.53
2018-07-15T07:31:15.060Z,8.57
2018-07-15T07:33:42.346Z,8.40
2018-07-15T07:36:09.680Z,9.30
2018-07-15T07:38:36.995Z,8.70
2018-07-15T07:41:04.301Z,8.37
2018-07-15T07:43:31.567Z,8.70
2018-07-15T07:45:58.845Z,8.17
2018-07-15T07:48:26.099Z,9.10
2018-07-15T07:50:53.408Z,8.07
2018-07-15T07:53:20.687Z,8.10
2018-07-15T07:55:48.093Z,8.13
2018-07-15T07:58:15.361Z,7.90
2018-07-15T08:00:42.668Z,8.00
2018-07-15T08:03:09.956Z,9.53
2018-07-15T08:05:37.249Z,8.00
2018-07-15T08:08:04.535Z,7.83
2018-07-15T08:10:31.855Z,7.20
2018-07-15T08:12:59.145Z,7.90
2018-07-15T08:15:26.456Z,7.80
2018-07-15T08:17:53.799Z,7.77
2018-07-15T08:20:21.084Z,7.47
2018-07-15T08:22:48.487Z,8.27
2018-07-15T08:25:15.841Z,7.70
2018-07-15T08:27:43.209Z,7.73
2018-07-15T08:30:22.005Z,7.00
2018-07-15T08:32:49.338Z,6.73
2018-07-15T08:35:16.588Z,7.43
2018-07-15T08:37:43.869Z,7.37
2018-07-15T08:40:11.176Z,7.40
2018-07-15T08:42:38.515Z,6.30
2018-07-15T08:45:06.702Z,6.60
2018-07-15T08:47:34.006Z,6.77
2018-07-15T08:50:01.302Z,5.67
2018-07-15T08:52:29.092Z,6.67
2018-07-15T08:54:56.328Z,7.13
2018-07-15T08:57:23.561Z,5.83
2018-07-15T08:59:50.808Z,5.97
2018-07-15T09:02:18.253Z,6.73
2018-07-15T09:04:45.510Z,6.90
2018-07-15T09:07:12.888Z,6.27
2018-07-15T09:09:40.165Z,6.60
2018-07-15T09:12:07.493Z,6.27
2018-07-15T09:14:34.812Z,6.20
2018-07-15T09:17:02.164Z,6.20
2018-07-15T09:19:29.504Z,6.03
2018-07-15T09:21:56.919Z,6.23
2018-07-15T09:24:24.130Z,7.27
2018-07-15T09:26:51.419Z,6.63
2018-07-15T09:29:18.721Z,6.97
2018-07-15T09:31:46.039Z,6.00
2018-07-15T09:34:13.403Z,6.30
2018-07-15T09:36:40.752Z,6.27
2018-07-15T09:39:08.191Z,7.40
2018-07-15T09:41:35.513Z,5.80
2018-07-15T09:44:02.924Z,6.30
2018-07-15T09:46:30.256Z,6.53
2018-07-15T09:48:58.423Z,6.03
2018-07-15T09:51:25.984Z,6.00
2018-07-15T09:53:53.412Z,5.97
2018-07-15T09:56:20.688Z,6.10
2018-07-15T09:58:48.438Z,6.10
2018-07-15T10:01:15.748Z,5.90
2018-07-15T10:03:43.004Z,6.27
2018-07-15T10:06:10.303Z,6.30
2018-07-15T10:08:37.616Z,6.63
2018-07-15T10:11:04.906Z,5.80
2018-07-15T10:13:32.173Z,5.60
2018-07-15T10:15:59.428Z,6.40
2018-07-15T10:18:26.687Z,5.80
2018-07-15T10:20:53.917Z,5.27
2018-07-15T10:23:21.195Z,5.90
2018-07-15T10:25:48.445Z,6.10
2018-07-15T10:28:15.685Z,6.73
2018-07-15T10:30:42.953Z,6.00
2018-07-15T10:33:10.339Z,5.97
2018-07-15T10:35:37.554Z,6.23
2018-07-15T10:38:05.043Z,6.60
2018-07-15T10:40:32.347Z,5.90
2018-07-15T10:42:59.645Z,5.97
2018-07-15T10:45:26.954Z,6.83
2018-07-15T10:47:54.195Z,6.37
2018-07-15T10:50:21.432Z,5.57
2018-07-15T10:52:48.718Z,6.33
2018-07-15T10:55:15.934Z,7.13
2018-07-15T10:57:43.187Z,6.43
2018-07-15T11:00:10.512Z,6.90
2018-07-15T11:02:37.797Z,6.40
2018-07-15T11:05:06.005Z,6.53
2018-07-15T11:07:33.761Z,6.30
2018-07-15T11:10:01.109Z,7.27
2018-07-15T11:12:28.718Z,6.10
2018-07-15T11:14:59.635Z,6.57
2018-07-15T11:17:27.394Z,6.57
2018-07-15T11:19:55.024Z,6.13
2018-07-15T11:22:22.373Z,6.47
2018-07-15T11:24:49.690Z,6.50
2018-07-15T11:27:16.997Z,7.17
2018-07-15T11:29:44.272Z,6.83
2018-07-15T11:32:11.619Z,6.43
2018-07-15T11:34:38.900Z,6.80
2018-07-15T11:37:06.188Z,5.70
2018-07-15T11:39:33.458Z,6.00
2018-07-15T11:42:00.720Z,6.93
2018-07-15T11:44:27.999Z,5.83
2018-07-15T11:46:55.277Z,6.37
2018-07-15T11:49:22.539Z,6.40
2018-07-15T11:51:49.818Z,6.40
2018-07-15T11:54:17.194Z,6.13
2018-07-15T11:56:44.470Z,6.10
2018-07-15T11:59:11.748Z,6.30
2018-07-15T12:01:39.067Z,6.67
2018-07-15T12:04:06.304Z,7.00
2018-07-15T12:06:33.629Z,6.73
2018-07-15T12:09:00.953Z,7.00
2018-07-15T12:11:28.220Z,7.07
2018-07-15T12:13:55.514Z,6.80
2018-07-15T12:16:22.779Z,7.47
2018-07-15T12:18:50.105Z,7.40
2018-07-15T12:21:17.377Z,7.03
2018-07-15T12:23:44.776Z,6.20
2018-07-15T12:26:12.105Z,6.63
2018-07-15T12:28:39.373Z,7.63
2018-07-15T12:31:06.684Z,7.60
2018-07-15T12:33:33.993Z,7.70
2018-07-15T12:36:01.318Z,7.50
2018-07-15T12:38:28.637Z,7.40
2018-07-15T12:40:55.892Z,7.50
2018-07-15T12:43:23.377Z,7.47
2018-07-15T12:45:50.646Z,7.67
2018-07-15T12:48:18.064Z,7.30
2018-07-15T12:50:45.372Z,6.93
2018-07-15T12:53:12.679Z,7.17
2018-07-15T12:55:39.948Z,7.03
2018-07-15T12:58:07.317Z,7.87
2018-07-15T13:00:34.661Z,7.53
2018-07-15T13:03:01.969Z,7.37
2018-07-15T13:05:29.270Z,7.20
2018-07-15T13:07:56.566Z,6.97
2018-07-15T13:10:23.843Z,7.87
2018-07-15T13:12:51.203Z,7.90
2018-07-15T13:15:18.487Z,8.53
2018-07-15T13:17:45.780Z,8.67
2018-07-15T13:20:13.062Z,8.87
2018-07-15T13:22:40.362Z,11.03
2018-07-15T13:25:07.633Z,11.60
2018-07-15T13:27:34.893Z,11.17
2018-07-15T13:30:02.216Z,11.03
2018-07-15T13:32:29.534Z,11.30
2018-07-15T13:34:56.958Z,9.57
2018-07-15T13:37:24.258Z,9.60
2018-07-15T13:39:51.586Z,9.60
2018-07-15T13:42:18.889Z,9.03
2018-07-15T13:44:46.864Z,9.17
2018-07-15T13:47:14.097Z,9.57
2018-07-15T13:49:41.312Z,9.93
2018-07-15T13:52:08.662Z,10.97
2018-07-15T13:54:35.928Z,10.83
2018-07-15T13:57:03.192Z,9.33
2018-07-15T13:59:30.440Z,9.37
2018-07-15T14:01:57.740Z,8.83
2018-07-15T14:04:25.064Z,8.93
2018-07-15T14:06:52.701Z,9.17
2018-07-15T14:09:20.004Z,7.83
2018-07-15T14:11:48.255Z,7.87
2018-07-15T14:14:15.517Z,7.67
2018-07-15T14:16:42.837Z,8.67
2018-07-15T14:19:10.089Z,9.50
2018-07-15T14:21:37.401Z,8.90
2018-07-15T14:24:04.753Z,8.20
2018-07-15T14:26:32.100Z,7.77
2018-07-15T14:28:59.408Z,7.00
2018-07-15T14:31:26.752Z,8.20
2018-07-15T14:33:54.112Z,7.80
2018-07-15T14:36:21.481Z,9.73
2018-07-15T14:38:48.746Z,8.93
2018-07-15T14:41:15.981Z,8.47
2018-07-15T14:43:43.311Z,9.30
2018-07-15T14:46:10.591Z,9.40
2018-07-15T14:48:37.871Z,8.80
2018-07-15T14:51:05.337Z,8.93
2018-07-15T14:53:32.584Z,9.43
2018-07-15T14:55:59.882Z,8.83
2018-07-15T14:58:27.135Z,10.00
2018-07-15T15:00:54.387Z,9.10
2018-07-15T15:03:21.693Z,9.27
2018-07-15T15:05:48.958Z,10.00
2018-07-15T15:08:16.280Z,8.90
2018-07-15T15:10:43.564Z,9.43
2018-07-15T15:13:10.896Z,8.60
2018-07-15T15:15:38.132Z,9.97
2018-07-15T15:18:05.452Z,9.50
2018-07-15T15:20:32.705Z,8.80
2018-07-15T15:22:59.949Z,8.83
2018-07-15T15:25:27.273Z,9.10
2018-07-15T15:27:54.567Z,8.40
2018-07-15T15:30:21.860Z,8.90
2018-07-15T15:32:49.183Z,9.60
2018-07-15T15:35:16.451Z,9.23
2018-07-15T15:37:43.860Z,9.40
2018-07-15T15:40:11.086Z,8.93
2018-07-15T15:42:38.343Z,8.43
2018-07-15T15:45:05.732Z,8.90
2018-07-15T15:47:33.238Z,9.10
2018-07-15T15:50:00.476Z,9.80
2018-07-15T15:52:27.794Z,9.50
2018-07-15T15:54:55.060Z,7.73
2018-07-15T15:57:22.381Z,8.40
2018-07-15T15:59:49.659Z,7.97
2018-07-15T16:02:16.997Z,8.17
2018-07-15T16:04:44.277Z,7.70
2018-07-15T16:07:11.518Z,8.03
2018-07-15T16:09:38.761Z,8.50
2018-07-15T16:12:06.023Z,8.30
2018-07-15T16:14:33.270Z,8.40
2018-07-15T16:17:00.520Z,8.57
2018-07-15T16:19:27.845Z,7.20
2018-07-15T16:21:55.102Z,7.90
2018-07-15T16:24:22.359Z,7.13
2018-07-15T16:26:49.624Z,10.70
2018-07-15T16:29:16.929Z,7.30
2018-07-15T16:31:44.201Z,8.10
2018-07-15T16:34:12.422Z,8.40
2018-07-15T16:36:39.636Z,7.20
2018-07-15T16:39:07.136Z,7.80
2018-07-15T16:41:34.389Z,7.73
2018-07-15T16:44:01.674Z,7.70
2018-07-15T16:46:28.934Z,8.30
2018-07-15T16:48:56.247Z,7.33
2018-07-15T16:51:23.482Z,6.60
2018-07-15T16:53:50.719Z,6.77
2018-07-15T16:56:18.124Z,7.40
2018-07-15T16:58:45.235Z,6.50
2018-07-15T17:01:12.473Z,6.80
2018-07-15T17:03:39.746Z,7.40
2018-07-15T17:06:06.992Z,7.43
2018-07-15T17:08:34.225Z,6.93
2018-07-15T17:11:01.471Z,6.90
2018-07-15T17:13:28.720Z,7.40
2018-07-15T17:15:55.977Z,6.90
2018-07-15T17:18:23.222Z,8.07
2018-07-15T17:20:50.468Z,6.70
2018-07-15T17:23:17.720Z,6.67
2018-07-15T17:25:44.970Z,7.50
2018-07-15T17:28:12.263Z,7.43
2018-07-15T17:30:39.568Z,7.20
2018-07-15T17:33:06.794Z,7.40
2018-07-15T17:35:34.073Z,8.37
2018-07-15T17:38:01.363Z,6.73
2018-07-15T17:40:28.747Z,7.60
2018-07-15T17:42:55.956Z,7.10
2018-07-15T17:45:23.267Z,8.53
2018-07-15T17:47:50.512Z,7.50
2018-07-15T17:50:17.821Z,7.90
2018-07-15T17:52:45.088Z,7.10
2018-07-15T17:55:12.352Z,7.27
2018-07-15T17:57:39.606Z,9.03
2018-07-15T18:00:07.893Z,7.43
2018-07-15T18:02:35.155Z,7.67
2018-07-15T18:05:03.307Z,7.90
2018-07-15T18:07:30.586Z,8.60
2018-07-15T18:09:58.479Z,6.93
2018-07-15T18:12:25.723Z,7.17
2018-07-15T18:14:52.952Z,6.70
2018-07-15T18:17:20.195Z,7.53
2018-07-15T18:19:47.481Z,7.43
2018-07-15T18:22:14.809Z,6.90
2018-07-15T18:24:42.218Z,8.00
2018-07-15T18:27:09.489Z,7.10
2018-07-15T18:29:36.784Z,7.10
2018-07-15T18:32:04.016Z,7.10
2018-07-15T18:34:31.249Z,7.97
2018-07-15T18:36:58.497Z,7.00
2018-07-15T18:39:25.715Z,7.50
2018-07-15T18:41:52.948Z,7.57
2018-07-15T18:44:20.191Z,6.93
2018-07-15T18:46:48.053Z,7.40
2018-07-15T18:49:15.292Z,7.20
2018-07-15T18:51:42.540Z,6.57
2018-07-15T18:54:09.779Z,6.70
2018-07-15T18:56:37.209Z,8.10
2018-07-15T18:59:04.496Z,7.33
2018-07-15T19:01:31.745Z,7.60
2018-07-15T19:03:59.016Z,7.83
2018-07-15T19:06:26.348Z,8.57
2018-07-15T19:08:53.617Z,7.90
2018-07-15T19:11:21.021Z,8.87
2018-07-15T19:13:48.316Z,8.27
2018-07-15T19:16:15.687Z,6.77
2018-07-15T19:18:43.012Z,8.63
2018-07-15T19:21:10.418Z,7.50
2018-07-15T19:23:37.680Z,9.00
2018-07-15T19:26:04.978Z,7.90
2018-07-15T19:28:32.267Z,8.00
2018-07-15T19:30:59.662Z,7.20
2018-07-15T19:33:27.004Z,7.53
2018-07-15T19:35:54.273Z,8.70
2018-07-15T19:38:21.524Z,8.03
2018-07-15T19:40:48.882Z,6.90
2018-07-15T19:43:16.279Z,7.60
2018-07-15T19:45:43.564Z,8.43
2018-07-15T19:48:10.840Z,8.17
2018-07-15T19:50:38.208Z,7.60
2018-07-15T19:53:05.510Z,7.93
2018-07-15T19:55:32.860Z,7.53
2018-07-15T19:58:00.157Z,7.50
2018-07-15T20:00:27.598Z,7.10
2018-07-15T20:02:54.945Z,8.17
2018-07-15T20:05:22.346Z,8.00
2018-07-15T20:07:49.643Z,7.70
2018-07-15T20:10:16.985Z,7.60
2018-07-15T20:12:45.035Z,7.80
2018-07-15T20:15:12.429Z,7.23
2018-07-15T20:17:39.733Z,7.67
2018-07-15T20:20:08.495Z,8.00
2018-07-15T20:22:35.772Z,7.90
2018-07-15T20:25:03.256Z,7.33
2018-07-15T20:27:30.629Z,7.83
2018-07-15T20:29:57.922Z,7.63
2018-07-15T20:32:25.183Z,9.30
2018-07-15T20:34:52.545Z,7.97
2018-07-15T20:37:19.889Z,7.90
2018-07-15T20:39:47.343Z,7.60
2018-07-15T20:42:14.675Z,8.83
2018-07-15T20:44:41.996Z,8.73
2018-07-15T20:47:09.357Z,8.10
2018-07-15T20:49:36.767Z,8.50
2018-07-15T20:52:04.060Z,8.30
2018-07-15T20:54:31.322Z,8.07
2018-07-15T20:56:58.709Z,7.90
2018-07-15T20:59:26.092Z,7.30
2018-07-15T21:01:53.388Z,7.63
2018-07-15T21:04:20.690Z,7.33
2018-07-15T21:06:48.117Z,7.63
2018-07-15T21:09:15.409Z,7.00
2018-07-15T21:11:42.755Z,6.47
2018-07-15T21:14:10.014Z,7.20
2018-07-15T21:16:37.497Z,6.77
2018-07-15T21:19:04.922Z,7.63
2018-07-15T21:21:32.131Z,7.27
2018-07-15T21:23:59.549Z,7.70
2018-07-15T21:26:26.846Z,7.27
2018-07-15T21:28:54.143Z,7.33
2018-07-15T21:31:21.602Z,7.43
2018-07-15T21:33:48.832Z,7.17
2018-07-15T21:36:16.072Z,7.97
2018-07-15T21:38:43.407Z,8.50
2018-07-15T21:41:10.632Z,8.17
2018-07-15T21:43:37.875Z,7.40
2018-07-15T21:46:05.150Z,8.17
2018-07-15T21:48:32.537Z,7.30
2018-07-15T21:50:59.794Z,7.17
2018-07-15T21:53:27.053Z,7.80
2018-07-15T21:55:54.351Z,7.93
2018-07-15T21:58:21.599Z,7.17
2018-07-15T22:00:48.877Z,7.80
2018-07-15T22:03:16.129Z,7.63
2018-07-15T22:05:43.372Z,7.33
2018-07-15T22:08:22.345Z,8.60
2018-07-15T22:10:49.628Z,7.70
2018-07-15T22:13:16.888Z,7.20
2018-07-15T22:15:44.125Z,7.00
2018-07-15T22:18:11.428Z,7.40
2018-07-15T22:20:38.730Z,6.50
2018-07-15T22:23:06.615Z,7.47
2018-07-15T22:25:33.874Z,7.33
2018-07-15T22:28:01.555Z,6.90
2018-07-15T22:30:28.815Z,7.10
2018-07-15T22:32:56.141Z,7.97
2018-07-15T22:35:23.368Z,8.60
2018-07-15T22:37:50.602Z,8.00
2018-07-15T22:40:17.868Z,8.00
2018-07-15T22:42:45.127Z,8.70
2018-07-15T22:45:12.401Z,6.90
2018-07-15T22:47:39.764Z,7.37
2018-07-15T22:50:07.160Z,7.27
2018-07-15T22:52:34.407Z,8.50
2018-07-15T22:55:01.671Z,7.73
2018-07-15T22:57:28.933Z,7.73
2018-07-15T22:59:56.172Z,7.80
2018-07-15T23:02:23.441Z,8.57
2018-07-15T23:06:00.195Z,7.60
2018-07-15T23:08:28.772Z,8.67
2018-07-15T23:10:56.029Z,8.17
2018-07-15T23:13:23.336Z,7.37
2018-07-15T23:15:50.782Z,8.60
2018-07-15T23:18:18.017Z,8.07
2018-07-15T23:20:46.058Z,7.23
2018-07-15T23:23:13.707Z,8.80
2018-07-15T23:25:40.935Z,7.53
2018-07-15T23:28:09.161Z,7.30
2018-07-15T23:30:37.248Z,7.30
2018-07-15T23:33:05.032Z,7.33
2018-07-15T23:35:32.435Z,8.87
2018-07-15T23:37:59.756Z,7.43
2018-07-15T23:40:27.024Z,8.03
2018-07-15T23:42:55.122Z,7.33
2018-07-15T23:45:23.206Z,7.47
2018-07-15T23:47:50.478Z,8.10
2018-07-15T23:50:17.691Z,8.20
2018-07-15T23:52:44.993Z,8.17
2018-07-15T23:55:12.257Z,8.23
2018-07-15T23:57:39.531Z,8.27
